Terminal Aerodrome Forecast
Issued by NWS

Home | Current Version | Previous Version | Graphics & Text | Print | Product List | Glossary On
Versions: 1 2 3 4 5 6 7 8 9 10 11 12 13 14 15 16 17 18 19
000
FTUS43 KMPX 270520
TAFAXN
TAF
KAXN 270520Z 2706/2806 30012KT P6SM SKC
     FM271400 31015G24KT P6SM SKC
     FM271800 33013G21KT P6SM BKN050
     FM280300 35007KT P6SM SKC=

USA.gov is the U.S. government's official web portal to all federal, state and local government web resources and services.